sensor_id;sensor_type;location;lat;lon;timestamp;temperature;humidity
75430;DHT22;64127;51.488;5.462;2023-02-03T00:02:17;10.00;99.90
75430;DHT22;64127;51.488;5.462;2023-02-03T00:04:49;10.00;99.90
75430;DHT22;64127;51.488;5.462;2023-02-03T00:07:22;9.90;99.90
75430;DHT22;64127;51.488;5.462;2023-02-03T00:09:55;9.90;99.90
75430;DHT22;64127;51.488;5.462;2023-02-03T00:12:28;9.90;99.90
75430;DHT22;64127;51.488;5.462;2023-02-03T00:15:00;9.90;99.90
75430;DHT22;64127;51.488;5.462;2023-02-03T00:17:32;9.90;99.90
75430;DHT22;64127;51.488;5.462;2023-02-03T00:20:04;9.90;99.90
75430;DHT22;64127;51.488;5.462;2023-02-03T00:22:36;9.90;99.90
75430;DHT22;64127;51.488;5.462;2023-02-03T00:25:08;10.00;99.90
75430;DHT22;64127;51.488;5.462;2023-02-03T00:27:41;9.90;99.90
75430;DHT22;64127;51.488;5.462;2023-02-03T00:30:13;9.90;99.90
75430;DHT22;64127;51.488;5.462;2023-02-03T00:32:45;10.00;99.90
75430;DHT22;64127;51.488;5.462;2023-02-03T00:35:17;9.90;99.90
75430;DHT22;64127;51.488;5.462;2023-02-03T00:37:55;9.90;99.90
75430;DHT22;64127;51.488;5.462;2023-02-03T00:40:28;10.00;99.90
75430;DHT22;64127;51.488;5.462;2023-02-03T00:43:00;9.90;99.90
75430;DHT22;64127;51.488;5.462;2023-02-03T00:45:32;9.90;99.90
75430;DHT22;64127;51.488;5.462;2023-02-03T00:48:04;9.90;99.90
75430;DHT22;64127;51.488;5.462;2023-02-03T00:50:37;9.90;99.90
75430;DHT22;64127;51.488;5.462;2023-02-03T00:53:08;9.90;99.90
75430;DHT22;64127;51.488;5.462;2023-02-03T00:55:42;9.90;99.90
75430;DHT22;64127;51.488;5.462;2023-02-03T00:58:14;10.00;99.90
75430;DHT22;64127;51.488;5.462;2023-02-03T01:00:46;9.90;99.90
75430;DHT22;64127;51.488;5.462;2023-02-03T01:03:18;10.00;99.90
75430;DHT22;64127;51.488;5.462;2023-02-03T01:05:50;9.90;99.90
75430;DHT22;64127;51.488;5.462;2023-02-03T01:08:22;10.00;99.90
75430;DHT22;64127;51.488;5.462;2023-02-03T01:10:54;10.00;99.90
75430;DHT22;64127;51.488;5.462;2023-02-03T01:13:26;9.90;99.90
75430;DHT22;64127;51.488;5.462;2023-02-03T01:15:58;10.00;99.90
75430;DHT22;64127;51.488;5.462;2023-02-03T01:18:30;10.00;99.90
75430;DHT22;64127;51.488;5.462;2023-02-03T01:21:14;10.00;99.90
75430;DHT22;64127;51.488;5.462;2023-02-03T01:23:48;10.00;99.90
75430;DHT22;64127;51.488;5.462;2023-02-03T01:26:22;10.00;99.90
75430;DHT22;64127;51.488;5.462;2023-02-03T01:28:56;10.00;99.90
75430;DHT22;64127;51.488;5.462;2023-02-03T01:31:35;10.00;99.90
75430;DHT22;64127;51.488;5.462;2023-02-03T01:34:12;10.00;99.90
75430;DHT22;64127;51.488;5.462;2023-02-03T01:36:44;10.00;99.90
75430;DHT22;64127;51.488;5.462;2023-02-03T01:39:17;10.00;99.90
75430;DHT22;64127;51.488;5.462;2023-02-03T01:41:49;10.00;99.90
75430;DHT22;64127;51.488;5.462;2023-02-03T01:44:47;10.00;99.90
75430;DHT22;64127;51.488;5.462;2023-02-03T01:50:08;10.00;99.90
75430;DHT22;64127;51.488;5.462;2023-02-03T01:52:51;10.00;99.90
75430;DHT22;64127;51.488;5.462;2023-02-03T01:55:37;10.00;99.90
75430;DHT22;64127;51.488;5.462;2023-02-03T01:58:15;10.00;99.90
75430;DHT22;64127;51.488;5.462;2023-02-03T02:00:51;10.00;99.90
75430;DHT22;64127;51.488;5.462;2023-02-03T02:03:36;10.00;99.90
75430;DHT22;64127;51.488;5.462;2023-02-03T02:06:13;10.00;99.90
75430;DHT22;64127;51.488;5.462;2023-02-03T02:08:48;10.00;99.90
75430;DHT22;64127;51.488;5.462;2023-02-03T02:11:22;10.00;99.90
75430;DHT22;64127;51.488;5.462;2023-02-03T02:13:57;10.00;99.90
75430;DHT22;64127;51.488;5.462;2023-02-03T02:19:43;10.00;99.90
75430;DHT22;64127;51.488;5.462;2023-02-03T02:22:29;10.00;99.90
75430;DHT22;64127;51.488;5.462;2023-02-03T02:34:47;10.00;99.90
75430;DHT22;64127;51.488;5.462;2023-02-03T02:37:42;10.00;99.90
75430;DHT22;64127;51.488;5.462;2023-02-03T02:40:42;10.00;99.90
75430;DHT22;64127;51.488;5.462;2023-02-03T02:52:35;10.00;99.90
75430;DHT22;64127;51.488;5.462;2023-02-03T02:55:20;10.00;99.90
75430;DHT22;64127;51.488;5.462;2023-02-03T02:58:05;10.00;99.90
75430;DHT22;64127;51.488;5.462;2023-02-03T03:00:40;10.00;99.90
75430;DHT22;64127;51.488;5.462;2023-02-03T03:03:22;10.00;99.90
75430;DHT22;64127;51.488;5.462;2023-02-03T03:06:03;10.00;99.90
75430;DHT22;64127;51.488;5.462;2023-02-03T03:08:58;10.10;99.90
75430;DHT22;64127;51.488;5.462;2023-02-03T03:11:46;10.10;99.90
75430;DHT22;64127;51.488;5.462;2023-02-03T03:14:22;10.10;99.90
75430;DHT22;64127;51.488;5.462;2023-02-03T03:17:10;10.10;99.90
75430;DHT22;64127;51.488;5.462;2023-02-03T03:19:52;10.10;99.90
75430;DHT22;64127;51.488;5.462;2023-02-03T03:22:31;10.10;99.90
75430;DHT22;64127;51.488;5.462;2023-02-03T03:25:23;10.10;99.90
75430;DHT22;64127;51.488;5.462;2023-02-03T03:28:05;10.10;99.90
75430;DHT22;64127;51.488;5.462;2023-02-03T03:30:42;10.10;99.90
75430;DHT22;64127;51.488;5.462;2023-02-03T03:33:15;10.10;99.90
75430;DHT22;64127;51.488;5.462;2023-02-03T03:47:41;10.10;99.90
75430;DHT22;64127;51.488;5.462;2023-02-03T03:50:29;10.20;99.90
75430;DHT22;64127;51.488;5.462;2023-02-03T03:53:06;10.20;99.90
75430;DHT22;64127;51.488;5.462;2023-02-03T03:55:49;10.20;99.90
75430;DHT22;64127;51.488;5.462;2023-02-03T03:58:29;10.20;99.90
75430;DHT22;64127;51.488;5.462;2023-02-03T04:01:05;10.20;99.90
75430;DHT22;64127;51.488;5.462;2023-02-03T04:03:51;10.20;99.90
75430;DHT22;64127;51.488;5.462;2023-02-03T04:06:27;10.20;99.90
75430;DHT22;64127;51.488;5.462;2023-02-03T04:09:02;10.20;99.90
75430;DHT22;64127;51.488;5.462;2023-02-03T04:11:34;10.30;99.90
75430;DHT22;64127;51.488;5.462;2023-02-03T04:14:25;10.30;99.90
75430;DHT22;64127;51.488;5.462;2023-02-03T04:17:03;10.30;99.90
75430;DHT22;64127;51.488;5.462;2023-02-03T04:19:36;10.30;99.90
75430;DHT22;64127;51.488;5.462;2023-02-03T04:22:10;10.30;99.90
75430;DHT22;64127;51.488;5.462;2023-02-03T04:24:44;10.30;99.90
75430;DHT22;64127;51.488;5.462;2023-02-03T04:27:22;10.40;99.90
75430;DHT22;64127;51.488;5.462;2023-02-03T04:29:54;10.30;99.90
75430;DHT22;64127;51.488;5.462;2023-02-03T04:32:26;10.30;99.90
75430;DHT22;64127;51.488;5.462;2023-02-03T04:35:01;10.40;99.90
75430;DHT22;64127;51.488;5.462;2023-02-03T04:37:40;10.40;99.90
75430;DHT22;64127;51.488;5.462;2023-02-03T04:40:12;10.40;99.90
75430;DHT22;64127;51.488;5.462;2023-02-03T04:42:46;10.40;99.90
75430;DHT22;64127;51.488;5.462;2023-02-03T04:45:18;10.40;99.90
75430;DHT22;64127;51.488;5.462;2023-02-03T04:47:51;10.40;99.90
75430;DHT22;64127;51.488;5.462;2023-02-03T04:50:25;10.40;99.90
75430;DHT22;64127;51.488;5.462;2023-02-03T04:52:57;10.40;99.90
75430;DHT22;64127;51.488;5.462;2023-02-03T04:55:31;10.40;99.90
75430;DHT22;64127;51.488;5.462;2023-02-03T04:58:03;10.40;99.90
75430;DHT22;64127;51.488;5.462;2023-02-03T05:00:35;10.40;99.90
75430;DHT22;64127;51.488;5.462;2023-02-03T05:03:07;10.40;99.90
75430;DHT22;64127;51.488;5.462;2023-02-03T05:05:39;10.40;99.90
75430;DHT22;64127;51.488;5.462;2023-02-03T05:08:12;10.40;99.90
75430;DHT22;64127;51.488;5.462;2023-02-03T05:10:44;10.40;99.90
75430;DHT22;64127;51.488;5.462;2023-02-03T05:13:17;10.40;99.90
75430;DHT22;64127;51.488;5.462;2023-02-03T05:15:49;10.40;99.90
75430;DHT22;64127;51.488;5.462;2023-02-03T05:18:22;10.30;99.90
75430;DHT22;64127;51.488;5.462;2023-02-03T05:20:54;10.40;99.90
75430;DHT22;64127;51.488;5.462;2023-02-03T05:23:26;10.40;99.90
75430;DHT22;64127;51.488;5.462;2023-02-03T05:25:58;10.40;99.90
75430;DHT22;64127;51.488;5.462;2023-02-03T05:28:30;10.40;99.90
75430;DHT22;64127;51.488;5.462;2023-02-03T05:31:03;10.40;99.90
75430;DHT22;64127;51.488;5.462;2023-02-03T05:33:44;10.40;99.90
75430;DHT22;64127;51.488;5.462;2023-02-03T05:36:19;10.40;99.90
75430;DHT22;64127;51.488;5.462;2023-02-03T05:38:51;10.40;99.90
75430;DHT22;64127;51.488;5.462;2023-02-03T05:41:24;10.40;99.90
75430;DHT22;64127;51.488;5.462;2023-02-03T05:44:15;10.40;99.90
75430;DHT22;64127;51.488;5.462;2023-02-03T05:46:47;10.40;99.90
75430;DHT22;64127;51.488;5.462;2023-02-03T05:49:20;10.40;99.90
75430;DHT22;64127;51.488;5.462;2023-02-03T05:51:55;10.40;99.90
75430;DHT22;64127;51.488;5.462;2023-02-03T05:54:28;10.40;99.90
75430;DHT22;64127;51.488;5.462;2023-02-03T05:57:02;10.40;99.90
75430;DHT22;64127;51.488;5.462;2023-02-03T05:59:34;10.40;99.90
75430;DHT22;64127;51.488;5.462;2023-02-03T06:02:09;10.40;99.90
75430;DHT22;64127;51.488;5.462;2023-02-03T06:04:41;10.40;99.90
75430;DHT22;64127;51.488;5.462;2023-02-03T06:07:13;10.40;99.90
75430;DHT22;64127;51.488;5.462;2023-02-03T06:09:46;10.40;99.90
75430;DHT22;64127;51.488;5.462;2023-02-03T06:12:18;10.40;99.90
75430;DHT22;64127;51.488;5.462;2023-02-03T06:14:50;10.40;99.90
75430;DHT22;64127;51.488;5.462;2023-02-03T06:17:22;10.40;99.90
75430;DHT22;64127;51.488;5.462;2023-02-03T06:19:55;10.30;99.90
75430;DHT22;64127;51.488;5.462;2023-02-03T06:22:27;10.40;99.90
75430;DHT22;64127;51.488;5.462;2023-02-03T06:24:59;10.30;99.90
75430;DHT22;64127;51.488;5.462;2023-02-03T06:27:31;10.40;99.90
75430;DHT22;64127;51.488;5.462;2023-02-03T06:30:11;10.40;99.90
75430;DHT22;64127;51.488;5.462;2023-02-03T06:32:43;10.40;99.90
75430;DHT22;64127;51.488;5.462;2023-02-03T06:35:17;10.40;99.90
75430;DHT22;64127;51.488;5.462;2023-02-03T06:37:49;10.40;99.90
75430;DHT22;64127;51.488;5.462;2023-02-03T06:40:21;10.40;99.90
75430;DHT22;64127;51.488;5.462;2023-02-03T06:42:53;10.40;99.90
75430;DHT22;64127;51.488;5.462;2023-02-03T06:45:25;10.40;99.90
75430;DHT22;64127;51.488;5.462;2023-02-03T06:47:58;10.40;99.90
75430;DHT22;64127;51.488;5.462;2023-02-03T06:50:30;10.40;99.90
75430;DHT22;64127;51.488;5.462;2023-02-03T06:53:02;10.40;99.90
75430;DHT22;64127;51.488;5.462;2023-02-03T06:55:34;10.40;99.90
75430;DHT22;64127;51.488;5.462;2023-02-03T06:58:06;10.40;99.90
75430;DHT22;64127;51.488;5.462;2023-02-03T07:00:39;10.40;99.90
75430;DHT22;64127;51.488;5.462;2023-02-03T07:03:12;10.40;99.90
75430;DHT22;64127;51.488;5.462;2023-02-03T07:05:44;10.40;99.90
75430;DHT22;64127;51.488;5.462;2023-02-03T07:08:16;10.40;99.90
75430;DHT22;64127;51.488;5.462;2023-02-03T07:10:53;10.40;99.90
75430;DHT22;64127;51.488;5.462;2023-02-03T07:13:25;10.40;99.90
75430;DHT22;64127;51.488;5.462;2023-02-03T07:15:57;10.50;99.90
75430;DHT22;64127;51.488;5.462;2023-02-03T07:18:30;10.50;99.90
75430;DHT22;64127;51.488;5.462;2023-02-03T07:21:19;10.50;99.90
75430;DHT22;64127;51.488;5.462;2023-02-03T07:23:51;10.50;99.90
75430;DHT22;64127;51.488;5.462;2023-02-03T07:26:24;10.50;99.90
75430;DHT22;64127;51.488;5.462;2023-02-03T07:28:57;10.50;99.90
75430;DHT22;64127;51.488;5.462;2023-02-03T07:31:31;10.50;99.90
75430;DHT22;64127;51.488;5.462;2023-02-03T07:34:04;10.50;99.90
75430;DHT22;64127;51.488;5.462;2023-02-03T07:36:37;10.60;99.90
75430;DHT22;64127;51.488;5.462;2023-02-03T07:39:09;10.60;99.90
75430;DHT22;64127;51.488;5.462;2023-02-03T07:41:44;10.50;99.90
75430;DHT22;64127;51.488;5.462;2023-02-03T07:44:19;10.50;99.90
75430;DHT22;64127;51.488;5.462;2023-02-03T07:46:54;10.50;99.90
75430;DHT22;64127;51.488;5.462;2023-02-03T07:49:27;10.50;99.90
75430;DHT22;64127;51.488;5.462;2023-02-03T07:51:59;10.50;99.90
75430;DHT22;64127;51.488;5.462;2023-02-03T07:54:32;10.50;99.90
75430;DHT22;64127;51.488;5.462;2023-02-03T07:57:04;10.50;99.90
75430;DHT22;64127;51.488;5.462;2023-02-03T07:59:36;10.50;99.90
75430;DHT22;64127;51.488;5.462;2023-02-03T08:02:09;10.50;99.90
75430;DHT22;64127;51.488;5.462;2023-02-03T08:04:42;10.50;99.90
75430;DHT22;64127;51.488;5.462;2023-02-03T08:07:14;10.50;99.90
75430;DHT22;64127;51.488;5.462;2023-02-03T08:09:46;10.50;99.90
75430;DHT22;64127;51.488;5.462;2023-02-03T08:12:18;10.50;99.90
75430;DHT22;64127;51.488;5.462;2023-02-03T08:14:50;10.50;99.90
75430;DHT22;64127;51.488;5.462;2023-02-03T08:17:23;10.50;99.90
75430;DHT22;64127;51.488;5.462;2023-02-03T08:19:57;10.50;99.90
75430;DHT22;64127;51.488;5.462;2023-02-03T08:22:30;10.50;99.90
75430;DHT22;64127;51.488;5.462;2023-02-03T08:25:03;10.50;99.90
75430;DHT22;64127;51.488;5.462;2023-02-03T08:27:38;10.50;99.90
75430;DHT22;64127;51.488;5.462;2023-02-03T08:30:12;10.50;99.90
75430;DHT22;64127;51.488;5.462;2023-02-03T08:32:46;10.50;99.90
75430;DHT22;64127;51.488;5.462;2023-02-03T08:35:18;10.50;99.90
75430;DHT22;64127;51.488;5.462;2023-02-03T08:37:50;10.60;99.90
75430;DHT22;64127;51.488;5.462;2023-02-03T08:40:22;10.60;99.90
75430;DHT22;64127;51.488;5.462;2023-02-03T08:42:54;10.60;99.90
75430;DHT22;64127;51.488;5.462;2023-02-03T08:45:27;10.50;99.90
75430;DHT22;64127;51.488;5.462;2023-02-03T08:47:59;10.50;99.90
75430;DHT22;64127;51.488;5.462;2023-02-03T08:50:31;10.50;99.90
75430;DHT22;64127;51.488;5.462;2023-02-03T08:53:04;10.60;99.90
75430;DHT22;64127;51.488;5.462;2023-02-03T08:55:39;10.50;99.90
75430;DHT22;64127;51.488;5.462;2023-02-03T08:58:11;10.50;99.90
75430;DHT22;64127;51.488;5.462;2023-02-03T09:00:44;10.50;99.90
75430;DHT22;64127;51.488;5.462;2023-02-03T09:03:19;10.50;99.90
75430;DHT22;64127;51.488;5.462;2023-02-03T09:05:52;10.60;99.90
75430;DHT22;64127;51.488;5.462;2023-02-03T09:08:25;10.50;99.90
75430;DHT22;64127;51.488;5.462;2023-02-03T09:10:57;10.60;99.90
75430;DHT22;64127;51.488;5.462;2023-02-03T09:13:29;10.60;99.90
75430;DHT22;64127;51.488;5.462;2023-02-03T09:16:06;10.60;99.90
75430;DHT22;64127;51.488;5.462;2023-02-03T09:18:39;10.60;99.90
75430;DHT22;64127;51.488;5.462;2023-02-03T09:21:13;10.60;99.90
75430;DHT22;64127;51.488;5.462;2023-02-03T09:24:03;10.60;99.90
75430;DHT22;64127;51.488;5.462;2023-02-03T09:26:36;10.60;99.90
75430;DHT22;64127;51.488;5.462;2023-02-03T09:29:10;10.60;99.90
75430;DHT22;64127;51.488;5.462;2023-02-03T09:31:43;10.60;99.90
75430;DHT22;64127;51.488;5.462;2023-02-03T09:34:27;10.60;99.90
75430;DHT22;64127;51.488;5.462;2023-02-03T09:37:00;10.60;99.90
75430;DHT22;64127;51.488;5.462;2023-02-03T09:39:32;10.60;99.90
75430;DHT22;64127;51.488;5.462;2023-02-03T09:45:31;10.70;99.90
75430;DHT22;64127;51.488;5.462;2023-02-03T09:48:12;10.70;99.90
75430;DHT22;64127;51.488;5.462;2023-02-03T09:51:00;10.70;99.90
75430;DHT22;64127;51.488;5.462;2023-02-03T09:53:47;10.70;99.90
75430;DHT22;64127;51.488;5.462;2023-02-03T09:56:30;10.70;99.90
75430;DHT22;64127;51.488;5.462;2023-02-03T09:59:07;10.70;99.90
75430;DHT22;64127;51.488;5.462;2023-02-03T10:01:56;10.70;99.90
75430;DHT22;64127;51.488;5.462;2023-02-03T10:04:51;10.70;99.90
75430;DHT22;64127;51.488;5.462;2023-02-03T10:07:59;10.70;99.90
75430;DHT22;64127;51.488;5.462;2023-02-03T10:16:47;10.70;99.90
75430;DHT22;64127;51.488;5.462;2023-02-03T10:19:29;10.70;99.90
75430;DHT22;64127;51.488;5.462;2023-02-03T10:22:14;10.80;99.90
75430;DHT22;64127;51.488;5.462;2023-02-03T10:27:31;10.80;99.90
75430;DHT22;64127;51.488;5.462;2023-02-03T10:30:18;10.80;99.90
75430;DHT22;64127;51.488;5.462;2023-02-03T10:33:01;10.90;99.90
75430;DHT22;64127;51.488;5.462;2023-02-03T10:35:54;10.90;99.90
75430;DHT22;64127;51.488;5.462;2023-02-03T10:39:01;10.90;99.90
75430;DHT22;64127;51.488;5.462;2023-02-03T10:41:49;11.00;99.90
75430;DHT22;64127;51.488;5.462;2023-02-03T10:44:46;11.00;99.90
75430;DHT22;64127;51.488;5.462;2023-02-03T10:47:39;11.10;99.90
75430;DHT22;64127;51.488;5.462;2023-02-03T10:50:20;11.10;99.90
75430;DHT22;64127;51.488;5.462;2023-02-03T10:53:24;11.20;99.90
75430;DHT22;64127;51.488;5.462;2023-02-03T10:56:08;11.20;99.90
75430;DHT22;64127;51.488;5.462;2023-02-03T10:58:52;11.20;99.90
75430;DHT22;64127;51.488;5.462;2023-02-03T11:04:30;11.30;99.90
75430;DHT22;64127;51.488;5.462;2023-02-03T11:07:26;11.30;99.90
75430;DHT22;64127;51.488;5.462;2023-02-03T11:10:01;11.30;99.90
75430;DHT22;64127;51.488;5.462;2023-02-03T11:12:33;11.40;99.90
75430;DHT22;64127;51.488;5.462;2023-02-03T11:15:05;11.30;99.90
75430;DHT22;64127;51.488;5.462;2023-02-03T11:17:42;11.40;99.90
75430;DHT22;64127;51.488;5.462;2023-02-03T11:20:18;11.40;99.90
75430;DHT22;64127;51.488;5.462;2023-02-03T11:22:51;11.30;99.90
75430;DHT22;64127;51.488;5.462;2023-02-03T11:25:31;11.40;99.90
75430;DHT22;64127;51.488;5.462;2023-02-03T11:28:11;11.40;99.90
75430;DHT22;64127;51.488;5.462;2023-02-03T11:30:56;11.40;99.90
75430;DHT22;64127;51.488;5.462;2023-02-03T11:33:30;11.40;99.90
75430;DHT22;64127;51.488;5.462;2023-02-03T11:36:03;11.40;99.90
75430;DHT22;64127;51.488;5.462;2023-02-03T11:38:41;11.40;99.90
75430;DHT22;64127;51.488;5.462;2023-02-03T11:41:19;11.50;99.90
75430;DHT22;64127;51.488;5.462;2023-02-03T11:43:54;11.40;99.90
75430;DHT22;64127;51.488;5.462;2023-02-03T11:46:36;11.40;99.90
75430;DHT22;64127;51.488;5.462;2023-02-03T12:19:27;11.60;99.90
75430;DHT22;64127;51.488;5.462;2023-02-03T12:25:38;11.70;99.90
75430;DHT22;64127;51.488;5.462;2023-02-03T12:28:34;11.70;99.90
75430;DHT22;64127;51.488;5.462;2023-02-03T12:31:59;11.70;99.90
75430;DHT22;64127;51.488;5.462;2023-02-03T12:37:49;11.70;99.90
75430;DHT22;64127;51.488;5.462;2023-02-03T12:43:47;11.80;99.90
75430;DHT22;64127;51.488;5.462;2023-02-03T12:46:43;11.80;99.90
75430;DHT22;64127;51.488;5.462;2023-02-03T12:50:22;11.80;99.90
75430;DHT22;64127;51.488;5.462;2023-02-03T12:53:23;11.70;99.90
75430;DHT22;64127;51.488;5.462;2023-02-03T12:56:13;11.70;99.90
75430;DHT22;64127;51.488;5.462;2023-02-03T12:59:02;11.70;99.90
75430;DHT22;64127;51.488;5.462;2023-02-03T13:01:55;11.70;99.90
75430;DHT22;64127;51.488;5.462;2023-02-03T13:04:51;11.70;99.90
75430;DHT22;64127;51.488;5.462;2023-02-03T13:07:49;11.70;99.90
75430;DHT22;64127;51.488;5.462;2023-02-03T13:10:49;11.70;99.90
75430;DHT22;64127;51.488;5.462;2023-02-03T13:13:51;11.70;99.90
75430;DHT22;64127;51.488;5.462;2023-02-03T13:16:36;11.70;99.90
75430;DHT22;64127;51.488;5.462;2023-02-03T13:19:17;11.70;99.90
75430;DHT22;64127;51.488;5.462;2023-02-03T13:22:00;11.70;99.90
75430;DHT22;64127;51.488;5.462;2023-02-03T13:24:33;11.70;99.90
75430;DHT22;64127;51.488;5.462;2023-02-03T13:31:08;11.80;99.90
75430;DHT22;64127;51.488;5.462;2023-02-03T13:37:28;11.90;99.90
75430;DHT22;64127;51.488;5.462;2023-02-03T13:40:07;11.90;99.90
75430;DHT22;64127;51.488;5.462;2023-02-03T13:43:03;11.90;99.90
75430;DHT22;64127;51.488;5.462;2023-02-03T13:45:45;11.90;99.90
75430;DHT22;64127;51.488;5.462;2023-02-03T13:48:29;11.90;99.90
75430;DHT22;64127;51.488;5.462;2023-02-03T13:51:13;12.00;99.90
75430;DHT22;64127;51.488;5.462;2023-02-03T13:54:15;12.00;99.90
75430;DHT22;64127;51.488;5.462;2023-02-03T13:57:02;12.00;99.90
75430;DHT22;64127;51.488;5.462;2023-02-03T13:59:48;12.10;99.90
75430;DHT22;64127;51.488;5.462;2023-02-03T14:04:57;12.10;99.90
75430;DHT22;64127;51.488;5.462;2023-02-03T14:07:45;12.10;99.90
75430;DHT22;64127;51.488;5.462;2023-02-03T14:10:31;12.10;99.90
75430;DHT22;64127;51.488;5.462;2023-02-03T14:13:21;12.00;99.90
75430;DHT22;64127;51.488;5.462;2023-02-03T14:16:27;12.00;99.90
75430;DHT22;64127;51.488;5.462;2023-02-03T14:19:55;11.90;99.90
75430;DHT22;64127;51.488;5.462;2023-02-03T14:25:46;11.90;99.90
75430;DHT22;64127;51.488;5.462;2023-02-03T14:28:46;11.90;99.90
75430;DHT22;64127;51.488;5.462;2023-02-03T14:31:21;11.90;99.90
75430;DHT22;64127;51.488;5.462;2023-02-03T14:34:02;11.90;99.90
75430;DHT22;64127;51.488;5.462;2023-02-03T14:36:51;11.90;99.90
75430;DHT22;64127;51.488;5.462;2023-02-03T14:49:27;11.80;99.90
75430;DHT22;64127;51.488;5.462;2023-02-03T14:58:02;11.70;99.90
75430;DHT22;64127;51.488;5.462;2023-02-03T15:00:41;11.70;99.90
75430;DHT22;64127;51.488;5.462;2023-02-03T15:03:17;11.70;99.90
75430;DHT22;64127;51.488;5.462;2023-02-03T15:06:01;11.70;99.90
75430;DHT22;64127;51.488;5.462;2023-02-03T15:08:46;11.70;99.90
75430;DHT22;64127;51.488;5.462;2023-02-03T15:11:28;11.60;99.90
75430;DHT22;64127;51.488;5.462;2023-02-03T15:14:31;11.50;99.90
75430;DHT22;64127;51.488;5.462;2023-02-03T15:17:17;11.40;99.90
75430;DHT22;64127;51.488;5.462;2023-02-03T15:19:51;11.40;99.90
75430;DHT22;64127;51.488;5.462;2023-02-03T15:22:27;11.30;99.90
75430;DHT22;64127;51.488;5.462;2023-02-03T15:25:02;11.30;99.90
75430;DHT22;64127;51.488;5.462;2023-02-03T15:27:46;11.30;99.90
75430;DHT22;64127;51.488;5.462;2023-02-03T15:30:26;11.30;99.90
75430;DHT22;64127;51.488;5.462;2023-02-03T15:33:08;11.30;99.90
75430;DHT22;64127;51.488;5.462;2023-02-03T15:35:55;11.30;99.90
75430;DHT22;64127;51.488;5.462;2023-02-03T15:58:32;11.30;99.90
75430;DHT22;64127;51.488;5.462;2023-02-03T16:01:54;11.20;99.90
75430;DHT22;64127;51.488;5.462;2023-02-03T16:04:52;11.10;99.90
75430;DHT22;64127;51.488;5.462;2023-02-03T16:07:36;11.00;99.90
75430;DHT22;64127;51.488;5.462;2023-02-03T16:10:49;11.00;99.90
75430;DHT22;64127;51.488;5.462;2023-02-03T16:13:23;10.90;99.90
75430;DHT22;64127;51.488;5.462;2023-02-03T16:16:12;10.90;99.90
75430;DHT22;64127;51.488;5.462;2023-02-03T16:18:58;10.90;99.90
75430;DHT22;64127;51.488;5.462;2023-02-03T16:24:41;10.80;99.90
75430;DHT22;64127;51.488;5.462;2023-02-03T16:27:29;10.80;99.90
75430;DHT22;64127;51.488;5.462;2023-02-03T16:33:16;10.70;99.90
75430;DHT22;64127;51.488;5.462;2023-02-03T16:36:15;10.70;99.90
75430;DHT22;64127;51.488;5.462;2023-02-03T16:39:11;10.70;99.90
75430;DHT22;64127;51.488;5.462;2023-02-03T16:42:12;10.70;99.90
75430;DHT22;64127;51.488;5.462;2023-02-03T16:45:13;10.60;99.90
75430;DHT22;64127;51.488;5.462;2023-02-03T16:48:09;10.60;99.90
75430;DHT22;64127;51.488;5.462;2023-02-03T16:51:19;10.70;99.90
75430;DHT22;64127;51.488;5.462;2023-02-03T16:53:52;10.70;99.90
75430;DHT22;64127;51.488;5.462;2023-02-03T16:56:24;10.70;99.90
75430;DHT22;64127;51.488;5.462;2023-02-03T16:58:56;10.70;99.90
75430;DHT22;64127;51.488;5.462;2023-02-03T17:01:28;10.70;99.90
75430;DHT22;64127;51.488;5.462;2023-02-03T17:04:00;10.70;99.90
75430;DHT22;64127;51.488;5.462;2023-02-03T17:06:37;10.70;99.90
75430;DHT22;64127;51.488;5.462;2023-02-03T17:09:09;10.80;99.90
75430;DHT22;64127;51.488;5.462;2023-02-03T17:11:41;10.80;99.90
75430;DHT22;64127;51.488;5.462;2023-02-03T17:14:14;10.80;99.90
75430;DHT22;64127;51.488;5.462;2023-02-03T17:16:46;10.80;99.90
75430;DHT22;64127;51.488;5.462;2023-02-03T17:19:18;10.80;99.90
75430;DHT22;64127;51.488;5.462;2023-02-03T17:21:50;10.80;99.90
75430;DHT22;64127;51.488;5.462;2023-02-03T17:24:23;10.80;99.90
75430;DHT22;64127;51.488;5.462;2023-02-03T17:26:55;10.80;99.90
75430;DHT22;64127;51.488;5.462;2023-02-03T17:29:29;10.80;99.90
75430;DHT22;64127;51.488;5.462;2023-02-03T17:32:01;10.80;99.90
75430;DHT22;64127;51.488;5.462;2023-02-03T17:34:33;10.80;99.90
75430;DHT22;64127;51.488;5.462;2023-02-03T17:37:05;10.80;99.90
75430;DHT22;64127;51.488;5.462;2023-02-03T17:39:38;10.80;99.90
75430;DHT22;64127;51.488;5.462;2023-02-03T17:42:27;10.90;99.90
75430;DHT22;64127;51.488;5.462;2023-02-03T17:45:17;10.80;99.90
75430;DHT22;64127;51.488;5.462;2023-02-03T17:48:07;10.90;99.90
75430;DHT22;64127;51.488;5.462;2023-02-03T17:51:12;10.90;99.90
75430;DHT22;64127;51.488;5.462;2023-02-03T17:54:03;10.90;99.90
75430;DHT22;64127;51.488;5.462;2023-02-03T17:56:37;10.90;99.90
75430;DHT22;64127;51.488;5.462;2023-02-03T17:59:09;10.90;99.90
75430;DHT22;64127;51.488;5.462;2023-02-03T18:01:41;10.90;99.90
75430;DHT22;64127;51.488;5.462;2023-02-03T18:04:13;10.80;99.90
75430;DHT22;64127;51.488;5.462;2023-02-03T18:06:45;10.80;99.90
75430;DHT22;64127;51.488;5.462;2023-02-03T18:09:17;10.80;99.90
75430;DHT22;64127;51.488;5.462;2023-02-03T18:11:49;10.80;99.90
75430;DHT22;64127;51.488;5.462;2023-02-03T18:14:21;10.80;99.90
75430;DHT22;64127;51.488;5.462;2023-02-03T18:16:53;10.80;99.90
75430;DHT22;64127;51.488;5.462;2023-02-03T18:19:25;10.80;99.90
75430;DHT22;64127;51.488;5.462;2023-02-03T18:21:57;10.80;99.90
75430;DHT22;64127;51.488;5.462;2023-02-03T18:24:30;10.80;99.90
75430;DHT22;64127;51.488;5.462;2023-02-03T18:27:02;10.80;99.90
75430;DHT22;64127;51.488;5.462;2023-02-03T18:29:34;10.80;99.90
75430;DHT22;64127;51.488;5.462;2023-02-03T18:32:06;10.80;99.90
75430;DHT22;64127;51.488;5.462;2023-02-03T18:34:39;10.80;99.90
75430;DHT22;64127;51.488;5.462;2023-02-03T18:37:12;10.80;99.90
75430;DHT22;64127;51.488;5.462;2023-02-03T18:39:44;10.80;99.90
75430;DHT22;64127;51.488;5.462;2023-02-03T18:42:17;10.80;99.90
75430;DHT22;64127;51.488;5.462;2023-02-03T18:44:49;10.80;99.90
75430;DHT22;64127;51.488;5.462;2023-02-03T18:47:21;10.80;99.90
75430;DHT22;64127;51.488;5.462;2023-02-03T18:49:53;10.80;99.90
75430;DHT22;64127;51.488;5.462;2023-02-03T18:52:25;10.80;99.90
75430;DHT22;64127;51.488;5.462;2023-02-03T18:54:57;10.80;99.90
75430;DHT22;64127;51.488;5.462;2023-02-03T18:57:29;10.80;99.90
75430;DHT22;64127;51.488;5.462;2023-02-03T19:00:02;10.80;99.90
75430;DHT22;64127;51.488;5.462;2023-02-03T19:02:35;10.80;99.90
75430;DHT22;64127;51.488;5.462;2023-02-03T19:05:07;10.80;99.90
75430;DHT22;64127;51.488;5.462;2023-02-03T19:07:40;10.80;99.90
75430;DHT22;64127;51.488;5.462;2023-02-03T19:10:12;10.80;99.90
75430;DHT22;64127;51.488;5.462;2023-02-03T19:12:44;10.80;99.90